Time;durP1;ratioP1;P1;durP2;ratioP2;P2;SDS_P1;SDS_P2;PMS_P1;PMS_P2;Temp;Humidity;BMP_temperature;BMP_pressure;BME280_temperature;BME280_humidity;BME280_pressure;Samples;Min_cycle;Max_cycle;Signal;HPM_P1;HPM_P2
2021/08/20 00:00:08;;;;;;;4.37;3.00;;;;;;;12.14;80.11;99222.23;1830613;77;21094;-83
2021/08/20 00:02:36;;;;;;;4.60;3.22;;;;;;;12.13;80.16;99223.17;1832475;77;20962;-85
2021/08/20 00:05:06;;;;;;;4.20;3.10;;;;;;;12.13;80.23;99221.00;1839483;77;21040;-83
2021/08/20 00:07:32;;;;;;;5.85;3.30;;;;;;;12.13;80.24;99219.70;1834132;77;21088;-82
2021/08/20 00:10:00;;;;;;;5.78;3.25;;;;;;;12.14;80.33;99223.54;1765536;78;21035;-84
2021/08/20 00:12:27;;;;;;;5.15;3.35;;;;;;;12.15;80.36;99216.05;1771234;78;21899;-84
2021/08/20 00:14:58;;;;;;;4.83;3.25;;;;;;;12.15;80.37;99218.66;1783794;79;21625;-84
2021/08/20 00:17:25;;;;;;;4.65;3.10;;;;;;;12.17;80.49;99219.89;1784891;79;20963;-84
2021/08/20 00:20:35;;;;;;;3.60;3.02;;;;;;;12.22;80.62;99217.36;1775888;79;21006;-83
2021/08/20 00:23:02;;;;;;;7.00;3.67;;;;;;;12.22;80.52;99214.75;1779793;79;20990;-85
2021/08/20 00:25:28;;;;;;;4.58;3.70;;;;;;;12.21;80.60;99215.70;1782507;79;21433;-84
2021/08/20 00:27:55;;;;;;;4.80;3.37;;;;;;;12.22;80.68;99211.30;1776637;79;21004;-83
2021/08/20 00:30:59;;;;;;;9.30;4.10;;;;;;;12.29;80.87;99209.96;1837706;76;22699;-84
2021/08/20 00:33:26;;;;;;;5.25;3.65;;;;;;;12.28;80.86;99216.14;1789946;79;21007;-84
2021/08/20 00:35:53;;;;;;;6.15;3.62;;;;;;;12.33;80.95;99213.25;1795086;78;21451;-84
2021/08/20 00:38:19;;;;;;;5.83;3.40;;;;;;;12.39;81.00;99218.09;1794940;78;21532;-85
2021/08/20 00:40:46;;;;;;;4.67;3.43;;;;;;;12.43;81.02;99219.57;1795592;79;20966;-85
2021/08/20 00:43:13;;;;;;;4.80;3.50;;;;;;;12.45;81.00;99220.33;1799767;79;21036;-85
2021/08/20 00:45:40;;;;;;;5.85;3.80;;;;;;;12.49;81.14;99217.87;1795414;79;21278;-84
2021/08/20 00:48:06;;;;;;;6.42;3.58;;;;;;;12.54;81.18;99214.50;1793588;79;21082;-84
2021/08/20 00:50:34;;;;;;;4.30;3.20;;;;;;;12.58;81.23;99217.31;1796832;79;20974;-84
2021/08/20 00:53:00;;;;;;;;;;;;;;;12.65;81.30;99219.89;1779324;79;20966;-84
2021/08/20 00:55:27;;;;;;;4.90;3.40;;;;;;;12.70;81.43;99217.83;1795395;79;20256;-85
2021/08/20 00:57:54;;;;;;;4.60;3.52;;;;;;;12.75;81.38;99217.06;1802023;79;23957;-84
2021/08/20 01:00:22;;;;;;;5.53;3.15;;;;;;;12.80;81.39;99219.84;1794311;79;21120;-85
2021/08/20 01:02:48;;;;;;;5.22;3.35;;;;;;;12.83;81.44;99219.67;1798098;79;20944;-84
2021/08/20 01:05:19;;;;;;;5.03;3.33;;;;;;;12.90;81.52;99219.63;1799067;78;20975;-84
2021/08/20 01:07:45;;;;;;;6.62;3.45;;;;;;;12.95;81.54;99222.80;1789628;78;21041;-85
2021/08/20 01:10:13;;;;;;;5.00;3.42;;;;;;;13.01;81.54;99213.22;1817191;78;20994;-83
2021/08/20 01:12:41;;;;;;;7.05;3.50;;;;;;;13.06;81.60;99221.63;1784687;80;22000;-84
2021/08/20 01:15:09;;;;;;;4.53;3.25;;;;;;;13.09;81.55;99213.56;1800708;77;20981;-83
2021/08/20 01:17:36;;;;;;;3.55;3.25;;;;;;;13.12;81.58;99215.14;1799933;78;21051;-84
2021/08/20 01:20:12;;;;;;;5.62;3.50;;;;;;;13.14;81.54;99221.97;1796199;78;20904;-84
2021/08/20 01:22:41;;;;;;;5.00;3.43;;;;;;;13.17;81.62;99221.77;1801219;78;21016;-84
2021/08/20 01:25:09;;;;;;;6.62;4.00;;;;;;;13.20;81.68;99226.80;1793709;78;21547;-84
2021/08/20 01:27:36;;;;;;;5.10;3.40;;;;;;;13.25;81.70;99223.02;1802482;78;20972;-84
2021/08/20 01:30:06;;;;;;;5.40;3.50;;;;;;;13.25;81.62;99225.64;1799329;78;21009;-85
2021/08/20 01:32:33;;;;;;;4.50;3.70;;;;;;;13.25;81.64;99230.89;1796156;78;21001;-84
2021/08/20 01:35:00;;;;;;;5.20;3.62;;;;;;;13.26;81.77;99227.38;1796989;78;21053;-83
2021/08/20 01:37:26;;;;;;;6.17;3.83;;;;;;;13.29;81.82;99227.17;1795968;78;21599;-84
2021/08/20 01:39:53;;;;;;;8.55;3.80;;;;;;;13.30;81.74;99218.35;1801375;78;21504;-85
2021/08/20 01:42:19;;;;;;;7.97;4.62;;;;;;;13.28;81.71;99222.87;1799282;78;20989;-83
2021/08/20 01:44:46;;;;;;;4.70;3.58;;;;;;;13.30;81.88;99222.28;1801380;78;20970;-83
2021/08/20 01:47:13;;;;;;;6.10;4.30;;;;;;;13.29;81.80;99222.77;1796734;78;21049;-84
2021/08/20 01:49:40;;;;;;;3.95;3.35;;;;;;;13.26;81.75;99228.69;1796702;78;21109;-85
2021/08/20 01:52:09;;;;;;;4.97;3.90;;;;;;;13.25;81.88;99233.52;1802306;78;20932;-83
2021/08/20 01:54:35;;;;;;;5.83;4.08;;;;;;;13.26;81.90;99231.31;1799646;78;21061;-84
2021/08/20 01:57:02;;;;;;;5.53;4.17;;;;;;;13.27;81.93;99231.67;1794566;77;20961;-83
2021/08/20 01:59:29;;;;;;;4.28;3.72;;;;;;;13.31;82.03;99225.30;1799624;77;21063;-83
2021/08/20 02:01:55;;;;;;;5.20;3.67;;;;;;;13.30;81.98;99226.22;1794074;78;21336;-85
2021/08/20 02:04:22;;;;;;;6.45;3.90;;;;;;;13.28;81.96;99226.81;1801962;78;21046;-86
2021/08/20 02:06:49;;;;;;;5.27;3.80;;;;;;;13.25;82.01;99223.02;1799906;78;20957;-85
2021/08/20 02:09:15;;;;;;;5.80;3.72;;;;;;;13.24;82.02;99223.98;1799082;78;21077;-83
2021/08/20 02:11:42;;;;;;;6.40;3.93;;;;;;;13.25;82.11;99223.02;1797057;78;20958;-86
2021/08/20 02:14:09;;;;;;;5.90;4.27;;;;;;;13.24;82.07;99221.36;1797693;78;22411;-86
2021/08/20 02:16:36;;;;;;;7.08;4.30;;;;;;;13.20;82.08;99216.31;1796431;78;21060;-87
2021/08/20 02:19:02;;;;;;;4.95;3.90;;;;;;;13.19;82.17;99217.27;1794980;78;21166;-87
2021/08/20 02:21:29;;;;;;;4.92;3.98;;;;;;;13.18;82.02;99216.87;1798683;78;21503;-86
2021/08/20 02:23:56;;;;;;;6.90;4.10;;;;;;;13.19;82.32;99212.03;1795175;79;21001;-86
2021/08/20 02:26:23;;;;;;;7.45;4.40;;;;;;;13.21;82.38;99211.91;1796518;79;21946;-86
2021/08/20 02:28:50;;;;;;;5.95;4.12;;;;;;;13.28;82.50;99217.16;1794956;79;21649;-86
2021/08/20 02:31:16;;;;;;;4.00;3.60;;;;;;;13.34;82.50;99214.60;1796598;79;20956;-86
2021/08/20 02:33:45;;;;;;;4.07;3.47;;;;;;;13.33;82.34;99220.77;1796747;79;20962;-85
2021/08/20 02:36:12;;;;;;;4.67;4.20;;;;;;;13.34;82.47;99227.71;1787408;79;21042;-85
2021/08/20 02:38:39;;;;;;;6.30;4.22;;;;;;;13.36;82.43;99231.05;1787394;79;21525;-85
2021/08/20 02:41:06;;;;;;;6.47;4.20;;;;;;;13.38;82.48;99233.94;1811991;78;20938;-86
2021/08/20 02:43:33;;;;;;;5.25;4.20;;;;;;;13.40;82.47;99229.92;1813413;78;20967;-86
2021/08/20 02:46:00;;;;;;;5.45;4.12;;;;;;;13.42;82.61;99229.35;1786826;78;21538;-86
2021/08/20 02:48:27;;;;;;;5.43;4.27;;;;;;;13.44;82.57;99228.76;1781118;78;21069;-84
2021/08/20 02:50:53;;;;;;;16.05;4.35;;;;;;;13.46;82.67;99232.13;1790468;78;21574;-82
2021/08/20 02:53:20;;;;;;;4.00;3.33;;;;;;;13.47;82.58;99229.89;1791360;78;20927;-82
2021/08/20 02:55:47;;;;;;;4.90;3.60;;;;;;;13.48;82.61;99234.19;1774701;78;20961;-83
2021/08/20 02:58:13;;;;;;;7.40;4.10;;;;;;;13.49;82.67;99247.66;1790688;78;21001;-83
2021/08/20 03:00:40;;;;;;;5.97;4.53;;;;;;;13.49;82.68;99235.85;1795454;78;21044;-83
2021/08/20 03:03:07;;;;;;;4.70;3.77;;;;;;;13.49;82.76;99229.30;1816423;77;21064;-83
2021/08/20 03:05:33;;;;;;;4.53;3.97;;;;;;;13.52;82.81;99234.33;1813955;77;21008;-82
2021/08/20 03:08:00;;;;;;;5.42;3.77;;;;;;;13.54;82.82;99233.77;1792250;78;21562;-84
2021/08/20 03:10:27;;;;;;;6.30;4.10;;;;;;;13.54;82.79;99229.83;1816732;77;20985;-84
2021/08/20 03:12:54;;;;;;;5.28;4.00;;;;;;;13.54;82.86;99235.08;1792352;78;21084;-82
2021/08/20 03:15:20;;;;;;;4.77;3.90;;;;;;;13.56;82.84;99242.38;1801151;78;21119;-82
2021/08/20 03:17:47;;;;;;;5.00;3.67;;;;;;;13.54;82.80;99237.70;1800522;78;21375;-82
2021/08/20 03:20:13;;;;;;;4.83;3.63;;;;;;;13.49;82.71;99241.09;1795207;78;21536;-81
2021/08/20 03:22:40;;;;;;;5.72;3.70;;;;;;;13.45;82.70;99240.95;1799985;78;21354;-82
2021/08/20 03:25:10;;;;;;;5.60;3.67;;;;;;;13.41;82.74;99242.08;1804107;78;21025;-82
2021/08/20 03:27:36;;;;;;;9.80;3.92;;;;;;;13.37;82.71;99251.11;1796584;78;21955;-83
2021/08/20 03:30:05;;;;;;;6.27;4.20;;;;;;;13.35;82.92;99238.08;1802672;78;20903;-84
2021/08/20 03:32:31;;;;;;;5.78;4.08;;;;;;;13.38;82.99;99239.66;1793876;78;21504;-84
2021/08/20 03:34:58;;;;;;;6.63;4.43;;;;;;;13.32;82.98;99234.83;1797949;78;20977;-83
2021/08/20 03:37:25;;;;;;;6.40;4.80;;;;;;;13.41;83.11;99244.70;1793335;78;22376;-83
2021/08/20 03:39:51;;;;;;;7.58;4.40;;;;;;;13.43;83.14;99237.58;1801478;78;21095;-82
2021/08/20 03:42:18;;;;;;;7.57;4.23;;;;;;;13.46;83.18;99239.16;1802786;78;20973;-82
2021/08/20 03:44:45;;;;;;;7.05;4.10;;;;;;;13.47;83.10;99236.45;1797765;78;20905;-83
2021/08/20 03:47:11;;;;;;;5.97;4.10;;;;;;;13.47;83.18;99241.70;1797457;78;21537;-82
2021/08/20 03:49:38;;;;;;;8.18;4.50;;;;;;;13.52;83.18;99243.52;1795938;78;21401;-82
2021/08/20 03:52:06;;;;;;;5.45;3.85;;;;;;;13.54;83.21;99242.95;1800442;78;21446;-84
2021/08/20 03:54:32;;;;;;;5.92;4.03;;;;;;;13.54;83.19;99241.63;1797444;78;20983;-86
2021/08/20 03:56:59;;;;;;;6.63;4.43;;;;;;;13.59;83.31;99251.35;1804598;78;21008;-85
2021/08/20 03:59:26;;;;;;;6.43;3.67;;;;;;;13.62;83.23;99247.69;1793700;78;21646;-85
2021/08/20 04:01:52;;;;;;;5.77;3.70;;;;;;;13.61;83.16;99254.72;1799235;78;20940;-86
2021/08/20 04:04:19;;;;;;;4.80;3.60;;;;;;;13.61;83.20;99249.48;1802544;78;21496;-86
2021/08/20 04:06:46;;;;;;;6.23;3.90;;;;;;;13.64;83.25;99253.20;1795989;78;20919;-85
2021/08/20 04:09:12;;;;;;;4.47;3.53;;;;;;;13.69;83.22;99261.22;1801207;78;21002;-85
2021/08/20 04:11:39;;;;;;;4.53;3.53;;;;;;;13.73;83.32;99254.84;1794677;78;21598;-85
2021/08/20 04:14:05;;;;;;;5.20;3.73;;;;;;;13.74;83.20;99261.27;1798049;78;21488;-85
2021/08/20 04:18:52;;;;;;;5.15;4.30;;;;;;;13.85;83.22;99262.70;1823349;77;22385;-85
2021/08/20 04:21:19;;;;;;;5.62;3.98;;;;;;;13.85;83.29;99267.11;1803469;77;20971;-85
2021/08/20 04:23:46;;;;;;;4.55;3.77;;;;;;;13.96;83.43;99267.22;1799000;77;21077;-85
2021/08/20 04:26:12;;;;;;;8.30;3.87;;;;;;;13.98;83.17;99261.40;1803438;77;21520;-85
2021/08/20 04:28:39;;;;;;;5.50;3.93;;;;;;;13.99;83.14;99264.38;1801401;77;21008;-84
2021/08/20 04:31:06;;;;;;;4.73;3.97;;;;;;;14.04;83.36;99266.70;1808144;77;20965;-84
2021/08/20 04:33:36;;;;;;;9.90;4.37;;;;;;;14.11;83.33;99269.25;1807421;77;20976;-84
2021/08/20 04:36:03;;;;;;;4.40;3.70;;;;;;;14.14;83.17;99270.83;1800161;78;21460;-85
2021/08/20 04:38:29;;;;;;;7.12;3.85;;;;;;;14.18;83.21;99274.94;1804830;78;20990;-85
2021/08/20 04:40:56;;;;;;;7.20;4.15;;;;;;;14.26;83.45;99276.56;1779764;78;21606;-86
2021/08/20 04:43:23;;;;;;;9.90;4.03;;;;;;;14.35;83.45;99268.03;1757640;80;21035;-86
2021/08/20 04:45:50;;;;;;;6.08;3.98;;;;;;;14.43;83.36;99272.76;1805116;78;20958;-86
2021/08/20 04:48:17;;;;;;;6.67;4.57;;;;;;;14.46;83.23;99270.75;1805761;78;21430;-84
2021/08/20 04:50:43;;;;;;;7.17;4.43;;;;;;;14.46;83.22;99273.38;1809284;77;21025;-85
2021/08/20 04:53:10;;;;;;;6.83;3.93;;;;;;;14.52;83.31;99283.47;1804571;78;20967;-85
2021/08/20 04:55:36;;;;;;;5.58;4.28;;;;;;;14.55;83.27;99283.25;1767148;79;21565;-85
2021/08/20 04:58:03;;;;;;;6.60;4.67;;;;;;;14.61;83.46;99279.35;1769128;79;21052;-85
2021/08/20 05:00:30;;;;;;;7.23;4.30;;;;;;;14.69;83.47;99283.59;1756122;80;21107;-85
2021/08/20 05:02:56;;;;;;;5.85;3.70;;;;;;;14.74;83.45;99280.65;1805267;78;21220;-85
2021/08/20 05:05:24;;;;;;;6.70;4.37;;;;;;;14.75;83.28;99283.63;1802165;78;20967;-83
2021/08/20 05:07:51;;;;;;;14.28;5.08;;;;;;;14.72;83.22;99283.85;1763223;80;21549;-83
2021/08/20 05:10:17;;;;;;;7.20;4.50;;;;;;;14.75;83.43;99294.14;1803511;77;20900;-84
2021/08/20 05:12:44;;;;;;;9.13;4.47;;;;;;;14.83;83.55;99286.55;1805475;78;21060;-84
2021/08/20 05:15:11;;;;;;;32.17;7.50;;;;;;;14.89;83.47;99290.05;1809836;77;20997;-84
2021/08/20 05:17:38;;;;;;;26.30;5.53;;;;;;;14.97;83.51;99289.02;1805761;78;21492;-84
2021/08/20 05:20:07;;;;;;;34.75;14.47;;;;;;;15.05;83.54;99290.27;1804493;78;20929;-84
2021/08/20 05:22:46;;;;;;;15.55;9.13;;;;;;;15.11;83.50;99291.97;1801703;78;20969;-72
2021/08/20 05:25:14;;;;;;;8.35;5.40;;;;;;;15.18;83.49;99295.84;1792856;78;21224;-74
2021/08/20 05:27:41;;;;;;;11.45;5.80;;;;;;;15.28;83.43;99295.99;1805164;78;21017;-81
2021/08/20 05:30:10;;;;;;;10.43;4.95;;;;;;;15.34;83.33;99299.48;1809472;77;21048;-75
2021/08/20 05:32:37;;;;;;;7.67;4.70;;;;;;;15.37;83.27;99301.88;1802580;78;20974;-74
2021/08/20 05:35:07;;;;;;;9.23;4.67;;;;;;;15.48;83.38;99302.89;1800753;78;21575;-77
2021/08/20 05:37:38;;;;;;;5.55;3.95;;;;;;;15.58;83.41;99310.47;1775937;79;21583;-74
2021/08/20 05:40:09;;;;;;;6.12;4.28;;;;;;;15.68;83.29;99310.16;1761424;80;21036;-73
2021/08/20 05:42:35;;;;;;;10.82;4.85;;;;;;;15.79;83.23;99306.73;1807356;78;20991;-73
2021/08/20 05:45:03;;;;;;;5.95;3.80;;;;;;;15.82;83.06;99311.76;1776119;78;20972;-74
2021/08/20 05:47:30;;;;;;;5.62;3.77;;;;;;;15.87;83.13;99316.20;1755588;79;21060;-74
2021/08/20 05:50:00;;;;;;;7.72;3.92;;;;;;;15.87;82.87;99314.41;1799910;78;21067;-74
2021/08/20 05:52:27;;;;;;;7.03;3.90;;;;;;;15.96;83.17;99317.30;1807709;78;20989;-74
2021/08/20 05:54:54;;;;;;;6.62;3.90;;;;;;;16.54;83.88;99311.48;1801822;78;21001;-74
2021/08/20 05:57:20;;;;;;;14.98;3.90;;;;;;;16.93;83.15;99304.05;1804582;78;20971;-74
2021/08/20 05:59:47;;;;;;;4.33;3.27;;;;;;;17.17;82.83;99307.35;1809473;78;20944;-74
2021/08/20 06:02:15;;;;;;;6.80;3.15;;;;;;;17.33;82.46;99302.13;1761697;79;21386;-75
2021/08/20 06:04:44;;;;;;;5.30;2.90;;;;;;;17.38;82.23;99306.55;1750678;79;21056;-75
2021/08/20 06:07:12;;;;;;;6.95;3.40;;;;;;;17.51;82.40;99311.67;1763740;79;20978;-74
2021/08/20 06:09:42;;;;;;;3.87;2.65;;;;;;;17.61;82.19;99306.80;1801442;78;21084;-74
2021/08/20 06:12:09;;;;;;;4.55;2.98;;;;;;;17.73;81.97;99314.20;1806620;78;20974;-75
2021/08/20 06:14:35;;;;;;;42.43;6.12;;;;;;;17.59;81.63;99319.31;1803364;78;21445;-73
2021/08/20 06:17:02;;;;;;;9.05;3.30;;;;;;;17.56;81.39;99322.66;1799180;78;21205;-74
2021/08/20 06:19:29;;;;;;;10.35;3.35;;;;;;;17.49;81.37;99321.52;1776902;78;20981;-74
2021/08/20 06:21:56;;;;;;;32.55;5.58;;;;;;;17.56;81.75;99323.53;1779813;78;21828;-75
2021/08/20 06:24:23;;;;;;;12.20;3.02;;;;;;;17.75;81.90;99327.27;1776087;78;20967;-74
2021/08/20 06:26:50;;;;;;;47.75;6.45;;;;;;;18.04;81.92;99325.70;1805574;78;22147;-75
2021/08/20 06:29:20;;;;;;;20.60;4.50;;;;;;;18.41;81.69;99333.13;1804662;78;20967;-74
2021/08/20 06:31:50;;;;;;;5.67;2.80;;;;;;;18.56;81.14;99329.15;1800793;78;22377;-75
2021/08/20 06:34:17;;;;;;;5.15;3.05;;;;;;;18.80;81.02;99330.67;1804037;78;20989;-75
2021/08/20 06:36:44;;;;;;;58.78;16.75;;;;;;;19.19;80.97;99328.13;1803908;78;20993;-75
2021/08/20 06:39:12;;;;;;;15.00;6.62;;;;;;;19.47;80.72;99334.91;1802258;77;21140;-74
2021/08/20 06:41:39;;;;;;;7.03;2.95;;;;;;;19.97;80.72;99329.45;1802665;78;20911;-73
2021/08/20 06:44:06;;;;;;;8.48;2.83;;;;;;;20.55;80.54;99337.28;1802194;78;20980;-73
2021/08/20 06:46:32;;;;;;;23.02;6.55;;;;;;;21.04;79.69;99333.91;1801774;78;20931;-73
2021/08/20 06:48:59;;;;;;;19.23;6.83;;;;;;;21.24;79.05;99340.76;1803405;78;21036;-74
2021/08/20 06:51:28;;;;;;;39.08;9.30;;;;;;;21.43;78.77;99339.00;1796318;78;21159;-73
2021/08/20 06:53:55;;;;;;;30.50;12.10;;;;;;;21.51;78.29;99339.08;1804285;78;21578;-72
2021/08/20 06:56:22;;;;;;;8.63;3.08;;;;;;;22.01;78.77;99343.78;1805852;78;21559;-73
2021/08/20 06:58:49;;;;;;;9.70;4.40;;;;;;;22.49;78.39;99338.96;1796718;78;20947;-72
2021/08/20 07:01:16;;;;;;;65.92;14.00;;;;;;;22.98;78.04;99340.05;1796642;78;21610;-72
2021/08/20 07:03:43;;;;;;;5.25;2.42;;;;;;;23.58;77.53;99343.49;1800701;78;21098;-73
2021/08/20 07:06:21;;;;;;;10.48;2.62;;;;;;;23.96;76.23;99342.04;1799637;78;21537;-73
2021/08/20 07:08:49;;;;;;;24.37;5.65;;;;;;;23.81;74.98;99339.22;1783986;78;20934;-73
2021/08/20 07:11:17;;;;;;;38.50;9.13;;;;;;;23.57;74.42;99344.50;1757598;79;21025;-73
2021/08/20 07:13:49;;;;;;;27.65;9.65;;;;;;;23.26;74.77;99341.62;1760676;79;21271;-70
2021/08/20 07:16:20;;;;;;;25.65;9.33;;;;;;;23.27;75.06;99336.12;1789798;78;22019;-74
2021/08/20 07:18:48;;;;;;;98.58;17.73;;;;;;;22.96;74.10;99340.70;1777116;78;20946;-74
2021/08/20 07:21:15;;;;;;;30.50;6.35;;;;;;;22.59;74.31;99345.02;1798732;78;21032;-73
2021/08/20 07:23:42;;;;;;;30.55;4.08;;;;;;;22.39;74.44;99347.06;1808369;78;20942;-74
2021/08/20 07:26:10;;;;;;;27.10;3.95;;;;;;;21.96;73.14;99347.89;1804387;78;21001;-73
2021/08/20 07:28:37;;;;;;;10.38;1.90;;;;;;;21.79;74.23;99349.59;1802283;78;21067;-70
2021/08/20 07:31:35;;;;;;;3.98;1.55;;;;;;;21.99;74.08;99351.09;1774851;78;21048;-71
2021/08/20 07:34:18;;;;;;;2.85;1.60;;;;;;;22.18;73.78;99343.93;1738323;81;21028;-75
2021/08/20 07:37:05;;;;;;;11.60;1.90;;;;;;;22.39;73.21;99353.72;1768409;78;21140;-77
2021/08/20 07:39:40;;;;;;;11.10;2.17;;;;;;;22.48;73.10;99348.77;1749015;79;20997;-77
2021/08/20 07:42:03;;;;;;;5.33;1.72;;;;;;;22.60;71.81;99355.16;1764771;80;21060;-77
2021/08/20 07:44:32;;;;;;;5.33;1.40;;;;;;;22.38;71.65;99354.72;1744355;80;21169;-76
2021/08/20 07:47:02;;;;;;;5.40;1.57;;;;;;;22.36;71.81;99354.53;1765497;80;21029;-77
2021/08/20 07:49:33;;;;;;;3.90;1.65;;;;;;;22.56;71.31;99351.48;1695455;82;21667;-77
2021/08/20 07:51:59;;;;;;;3.52;1.40;;;;;;;22.39;70.88;99351.06;1742304;79;21006;-78
2021/08/20 07:54:26;;;;;;;3.27;1.30;;;;;;;22.33;70.54;99356.51;1750319;80;21249;-79
2021/08/20 07:56:53;;;;;;;3.95;1.60;;;;;;;22.18;69.98;99357.23;1731871;81;21675;-79
2021/08/20 07:59:20;;;;;;;3.55;1.20;;;;;;;21.82;69.92;99358.61;1741696;80;21012;-78
2021/08/20 08:01:49;;;;;;;6.05;1.60;;;;;;;21.38;69.32;99367.82;1749354;80;21070;-81
2021/08/20 08:04:19;;;;;;;5.35;1.30;;;;;;;21.01;69.17;99366.06;1747629;81;20981;-75
2021/08/20 08:06:52;;;;;;;4.25;1.40;;;;;;;20.65;68.99;99376.55;1747849;81;21823;-79
2021/08/20 08:09:25;;;;;;;3.85;1.62;;;;;;;20.39;69.11;99378.13;1720189;81;21110;-76
2021/08/20 08:11:51;;;;;;;16.93;2.50;;;;;;;20.22;69.11;99373.93;1754788;81;20906;-75
2021/08/20 08:14:18;;;;;;;21.97;2.60;;;;;;;20.13;69.16;99378.73;1752807;79;21710;-75
2021/08/20 08:16:49;;;;;;;5.78;1.45;;;;;;;20.07;69.26;99373.52;1753448;81;21012;-77
2021/08/20 08:19:26;;;;;;;10.13;2.02;;;;;;;20.08;69.05;99378.32;1753196;81;21763;-77
2021/08/20 08:21:57;;;;;;;7.72;1.77;;;;;;;20.12;69.27;99382.38;1736357;81;21013;-79
2021/08/20 08:24:29;;;;;;;41.37;3.80;;;;;;;20.19;68.88;99391.41;1756308;79;21603;-77
2021/08/20 08:30:00;;;;;;;10.75;2.80;;;;;;;20.17;68.29;99388.09;1592522;85;21110;-89
2021/08/20 08:32:33;;;;;;;15.23;1.80;;;;;;;20.10;68.24;99389.63;1617528;85;21100;-84
2021/08/20 08:35:00;;;;;;;5.28;1.45;;;;;;;20.12;68.28;99392.98;1614168;86;21670;-84
2021/08/20 08:37:26;;;;;;;35.68;3.02;;;;;;;20.24;68.23;99395.80;1609430;85;21143;-84
2021/08/20 08:39:56;;;;;;;13.65;2.65;;;;;;;20.22;67.83;99393.81;1580992;87;21546;-82
2021/08/20 08:42:26;;;;;;;14.53;1.80;;;;;;;20.18;67.55;99392.41;1586574;87;21197;-84
2021/08/20 08:45:49;;;;;;;3.58;1.12;;;;;;;20.12;67.29;99391.66;1814556;74;23666;-84
2021/08/20 08:48:21;;;;;;;9.80;1.85;;;;;;;19.99;67.17;99395.08;1806787;77;20953;-84
2021/08/20 08:50:48;;;;;;;11.45;1.67;;;;;;;20.00;67.20;99403.39;1769802;77;21216;-83
2021/08/20 08:53:27;;;;;;;;;;;;;;;;;;;;;
2021/08/20 08:55:49;;;;;;;16.17;3.33;;;;;;;19.93;66.81;99403.09;1738549;80;20970;-79
2021/08/20 08:58:17;;;;;;;9.78;1.98;;;;;;;19.93;67.02;99405.75;1768707;78;21386;-81
2021/08/20 09:00:43;;;;;;;5.28;1.60;;;;;;;20.00;66.95;99404.72;1774120;78;21057;-80
2021/08/20 09:03:28;;;;;;;12.68;3.60;;;;;;;20.10;66.90;99405.52;1755446;80;21726;-83
2021/08/20 09:05:58;;;;;;;36.85;5.65;;;;;;;20.25;66.69;99413.41;1770039;78;21405;-83
2021/08/20 09:08:29;;;;;;;33.85;7.70;;;;;;;20.21;66.37;99413.33;1775198;78;20930;-80
2021/08/20 09:11:01;;;;;;;16.70;3.70;;;;;;;20.16;66.32;99407.61;1772666;78;21584;-86
2021/08/20 09:13:29;;;;;;;14.68;4.58;;;;;;;19.98;66.00;99414.61;1770632;78;20947;-84
2021/08/20 09:16:14;;;;;;;21.42;4.17;;;;;;;19.76;65.81;99422.34;1757345;80;21103;-83
2021/08/20 09:18:41;;;;;;;45.35;6.62;;;;;;;19.53;65.81;99428.35;1764971;79;21008;-83
2021/08/20 09:21:16;;;;;;;44.70;7.05;;;;;;;19.35;65.91;99428.16;1759764;79;20989;-86
2021/08/20 09:23:42;;;;;;;9.08;2.17;;;;;;;19.17;65.79;99430.63;1764335;79;20998;-86
2021/08/20 09:26:09;;;;;;;42.80;5.60;;;;;;;19.04;65.70;99431.34;1767339;79;21096;-78
2021/08/20 09:41:48;;;;;;;2.85;1.40;;;;;;;18.34;65.39;99429.76;1824252;75;22823;-83
2021/08/20 09:46:23;;;;;;;5.17;1.42;;;;;;;18.01;65.52;99431.63;1763468;80;24237;-73
2021/08/20 09:49:00;;;;;;;4.78;1.45;;;;;;;17.86;65.67;99438.16;1733425;81;21070;-83
2021/08/20 09:51:44;;;;;;;5.80;1.20;;;;;;;17.66;65.39;99430.03;1734885;81;21127;-72
2021/08/20 09:54:18;;;;;;;3.35;1.37;;;;;;;17.49;65.44;99443.76;1731804;81;21023;-82
2021/08/20 09:56:46;;;;;;;4.47;1.35;;;;;;;17.28;65.33;99444.14;1735072;81;20991;-69
2021/08/20 09:59:14;;;;;;;8.95;1.70;;;;;;;17.12;65.36;99442.73;1734300;80;21604;-69
2021/08/20 10:01:46;;;;;;;4.15;1.32;;;;;;;17.03;65.47;99447.42;1739404;81;20962;-78
2021/08/20 10:04:18;;;;;;;3.37;1.30;;;;;;;17.03;65.57;99451.38;1732929;81;21943;-72
2021/08/20 10:06:47;;;;;;;3.85;1.47;;;;;;;16.97;65.58;99442.60;1735180;81;21013;-71
2021/08/20 10:09:17;;;;;;;2.30;1.02;;;;;;;16.98;65.68;99444.30;1740451;81;21195;-72
2021/08/20 10:11:50;;;;;;;4.90;1.20;;;;;;;17.21;66.03;99452.55;1735441;81;20935;-71
2021/08/20 10:14:20;;;;;;;6.80;1.37;;;;;;;17.52;66.13;99451.43;1734386;81;21045;-70
2021/08/20 10:16:47;;;;;;;4.10;1.47;;;;;;;17.84;66.07;99453.28;1736815;80;21006;-72
2021/08/20 10:19:13;;;;;;;4.55;1.00;;;;;;;18.16;66.14;99449.81;1733824;81;22254;-77
2021/08/20 10:21:42;;;;;;;1.75;0.98;;;;;;;18.37;65.67;99455.09;1737515;81;21710;-73
2021/08/20 10:24:11;;;;;;;5.00;1.07;;;;;;;18.51;65.64;99447.70;1732449;81;21015;-77
2021/08/20 10:26:42;;;;;;;10.70;1.85;;;;;;;18.64;65.58;99451.94;1718582;81;21062;-73
2021/08/20 10:29:10;;;;;;;44.90;5.17;;;;;;;18.86;65.51;99449.16;1731756;81;21938;-71
2021/08/20 10:31:42;;;;;;;29.67;4.75;;;;;;;18.99;65.77;99447.14;1740969;81;21586;-70
2021/08/20 10:34:36;;;;;;;120.67;23.32;;;;;;;19.45;66.06;99439.13;1737090;81;21037;-70
2021/08/20 10:37:16;;;;;;;123.45;17.82;;;;;;;19.80;65.69;99444.45;1738360;81;21520;-72
2021/08/20 10:39:52;;;;;;;306.13;44.18;;;;;;;20.12;65.32;99442.84;1734287;81;21067;-73
2021/08/20 10:42:24;;;;;;;30.77;5.35;;;;;;;20.14;64.96;99441.39;1731260;81;21063;-71
2021/08/20 10:45:04;;;;;;;6.62;2.80;;;;;;;20.42;65.41;99444.16;1739718;81;20911;-70
2021/08/20 10:47:31;;;;;;;9.78;1.95;;;;;;;20.61;64.97;99441.46;1740633;81;20954;-72
2021/08/20 10:50:16;;;;;;;11.93;2.27;;;;;;;20.74;64.80;99447.30;1690803;83;21106;-69
2021/08/20 10:52:46;;;;;;;7.20;1.65;;;;;;;20.95;65.07;99447.60;1675011;84;21612;-70
2021/08/20 10:55:32;;;;;;;5.75;1.17;;;;;;;21.09;64.57;99453.75;1679401;84;21221;-69
2021/08/20 10:58:06;;;;;;;7.28;1.30;;;;;;;21.19;64.23;99457.18;1671147;84;21576;-71
2021/08/20 11:00:41;;;;;;;5.33;1.40;;;;;;;21.17;63.65;99451.20;1686446;84;21071;-72
2021/08/20 11:03:13;;;;;;;13.10;2.60;;;;;;;21.01;63.69;99462.94;1681557;84;21080;-69
2021/08/20 11:05:48;;;;;;;5.45;1.27;;;;;;;20.89;63.63;99457.45;1686708;84;20982;-72
2021/08/20 11:08:32;;;;;;;4.83;1.57;;;;;;;20.84;63.49;99455.71;1692326;83;21096;-72
2021/08/20 11:11:00;;;;;;;10.23;2.25;;;;;;;20.91;63.87;99460.30;1711271;83;21089;-72
2021/08/20 11:13:28;;;;;;;86.95;14.30;;;;;;;21.17;63.81;99461.83;1707453;83;21011;-72
2021/08/20 11:15:55;;;;;;;;;;;;;;;21.30;63.31;99450.02;1711017;83;21579;-71
2021/08/20 11:18:45;;;;;;;11.33;3.15;;;;;;;21.46;62.60;99444.93;1709446;82;20237;-71
2021/08/20 11:21:41;;;;;;;8.13;1.77;;;;;;;21.40;62.88;99448.19;1706681;82;21109;-71
2021/08/20 11:24:18;;;;;;;14.53;2.83;;;;;;;21.51;62.72;99447.98;1712151;83;21084;-72
2021/08/20 11:26:45;;;;;;;;;;;;;;;21.54;62.75;99439.71;1713207;83;20976;-71
2021/08/20 11:29:15;;;;;;;6.83;1.47;;;;;;;21.87;62.67;99442.67;1710666;83;20633;-71
2021/08/20 11:31:42;;;;;;;5.92;1.05;;;;;;;22.18;62.62;99434.34;1692477;83;21535;-70
2021/08/20 11:34:09;;;;;;;5.65;1.37;;;;;;;22.39;62.35;99440.16;1693991;83;21912;-70
2021/08/20 11:36:42;;;;;;;3.40;1.20;;;;;;;22.48;62.08;99439.22;1682879;84;28767;-76
2021/08/20 11:39:05;;;;;;;5.90;1.62;;;;;;;22.65;61.77;99436.67;1684048;84;21575;-69
2021/08/20 11:41:41;;;;;;;5.03;1.42;;;;;;;22.62;61.63;99440.98;1689026;83;21057;-69
2021/08/20 11:44:07;;;;;;;8.78;1.27;;;;;;;22.58;61.00;99452.95;1691862;83;21036;-70
2021/08/20 11:46:45;;;;;;;4.90;1.42;;;;;;;22.22;60.90;99454.33;1680645;83;22412;-70
2021/08/20 11:49:25;;;;;;;1.77;0.88;;;;;;;21.91;60.57;99460.01;1712690;83;21562;-69
2021/08/20 11:51:52;;;;;;;4.58;1.55;;;;;;;21.63;59.98;99469.36;1704475;82;20993;-70
2021/08/20 11:54:20;;;;;;;3.92;1.22;;;;;;;21.09;59.93;99472.34;1659981;84;21006;-71
2021/08/20 11:56:53;;;;;;;4.00;1.20;;;;;;;20.82;59.92;99468.31;1687128;84;20940;-69
2021/08/20 11:59:22;;;;;;;4.90;1.55;;;;;;;20.63;60.00;99468.69;1689801;84;21153;-69
2021/08/20 12:01:56;;;;;;;2.67;1.20;;;;;;;20.54;60.13;99466.91;1683310;84;21217;-70
2021/08/20 12:04:24;;;;;;;3.02;1.15;;;;;;;20.62;60.09;99480.29;1684971;83;21150;-71